createdAt,value
2019-04-01T00:00:18.797Z,2.80
2019-04-01T00:02:46.604Z,2.80
2019-04-01T00:05:14.492Z,2.70
2019-04-01T00:07:42.568Z,2.70
2019-04-01T00:10:10.425Z,2.60
2019-04-01T00:12:39.869Z,2.60
2019-04-01T00:15:08.861Z,2.60
2019-04-01T00:17:36.774Z,2.60
2019-04-01T00:20:05.428Z,2.50
2019-04-01T00:22:34.943Z,2.50
2019-04-01T00:25:02.948Z,2.50
2019-04-01T00:27:32.445Z,2.50
2019-04-01T00:30:01.440Z,2.40
2019-04-01T00:32:32.341Z,2.50
2019-04-01T00:35:06.222Z,2.50
2019-04-01T00:37:34.117Z,2.40
2019-04-01T00:40:01.997Z,2.40
2019-04-01T00:42:49.621Z,2.40
2019-04-01T00:45:20.126Z,2.40
2019-04-01T00:47:47.926Z,2.40
2019-04-01T00:50:15.961Z,2.40
2019-04-01T00:52:44.190Z,2.30
2019-04-01T00:55:13.707Z,2.30
2019-04-01T00:57:41.595Z,2.30
2019-04-01T01:00:12.182Z,2.30
2019-04-01T01:02:41.092Z,2.30
2019-04-01T01:05:09.147Z,2.30
2019-04-01T01:07:37.127Z,2.30
2019-04-01T01:10:08.418Z,2.30
2019-04-01T01:12:37.424Z,2.30
2019-04-01T01:15:06.124Z,2.30
2019-04-01T01:17:37.498Z,2.20
2019-04-01T01:20:08.999Z,2.20
2019-04-01T01:22:40.082Z,2.20
2019-04-01T01:25:08.125Z,2.10
2019-04-01T01:27:40.887Z,2.10
2019-04-01T01:30:08.776Z,2.10
2019-04-01T01:32:36.708Z,2.10
2019-04-01T01:35:05.051Z,2.10
2019-04-01T01:37:34.399Z,2.10
2019-04-01T01:40:02.227Z,2.00
2019-04-01T01:42:31.224Z,2.00
2019-04-01T01:44:59.258Z,2.00
2019-04-01T01:47:29.044Z,2.00
2019-04-01T01:49:57.051Z,1.90
2019-04-01T01:52:24.932Z,1.90
2019-04-01T01:54:53.522Z,1.90
2019-04-01T01:57:25.348Z,1.90
2019-04-01T01:59:54.844Z,1.90
2019-04-01T02:02:22.851Z,1.80
2019-04-01T02:04:51.461Z,1.80
2019-04-01T02:07:19.405Z,1.80
2019-04-01T02:09:47.336Z,1.80
2019-04-01T02:12:15.345Z,1.80
2019-04-01T02:14:43.184Z,1.80
2019-04-01T02:17:11.499Z,1.70
2019-04-01T02:19:39.288Z,1.80
2019-04-01T02:22:07.632Z,1.80
2019-04-01T02:24:37.828Z,1.80
2019-04-01T02:27:07.306Z,1.80
2019-04-01T02:29:39.009Z,1.80
2019-04-01T02:32:07.180Z,1.80
2019-04-01T02:34:35.107Z,1.80
2019-04-01T02:37:03.193Z,1.70
2019-04-01T02:39:32.745Z,1.70
2019-04-01T02:42:02.414Z,1.70
2019-04-01T02:44:30.387Z,1.70
2019-04-01T02:46:59.502Z,1.70
2019-04-01T02:49:30.771Z,1.70
2019-04-01T02:52:01.566Z,1.70
2019-04-01T02:54:29.392Z,1.70
2019-04-01T02:56:57.390Z,1.70
2019-04-01T02:59:25.240Z,1.60
2019-04-01T03:01:54.382Z,1.60
2019-04-01T03:04:23.828Z,1.60
2019-04-01T03:06:52.048Z,1.60
2019-04-01T03:09:19.923Z,1.60
2019-04-01T03:11:47.984Z,1.60
2019-04-01T03:14:22.055Z,1.60
2019-04-01T03:16:50.056Z,1.60
2019-04-01T03:19:18.072Z,1.60
2019-04-01T03:21:46.800Z,1.60
2019-04-01T03:24:15.922Z,1.60
2019-04-01T03:26:45.561Z,1.60
2019-04-01T03:29:13.601Z,1.50
2019-04-01T03:31:41.637Z,1.50
2019-04-01T03:34:09.478Z,1.60
2019-04-01T03:36:40.473Z,1.50
2019-04-01T03:39:08.187Z,1.50
2019-04-01T03:41:36.105Z,1.50
2019-04-01T03:44:04.169Z,1.50
2019-04-01T03:46:32.012Z,1.50
2019-04-01T03:48:59.858Z,1.50
2019-04-01T03:51:27.738Z,1.50
2019-04-01T03:53:57.226Z,1.50
2019-04-01T03:56:25.261Z,1.40
2019-04-01T03:58:53.259Z,1.50
2019-04-01T04:01:21.277Z,1.50
2019-04-01T04:03:49.264Z,1.50
2019-04-01T04:06:17.282Z,1.40
2019-04-01T04:08:45.358Z,1.40
2019-04-01T04:11:13.424Z,1.40
2019-04-01T04:13:41.465Z,1.40
2019-04-01T04:16:09.359Z,1.40
2019-04-01T04:18:37.146Z,1.40
2019-04-01T04:21:05.040Z,1.40
2019-04-01T04:23:36.172Z,1.40
2019-04-01T04:26:04.071Z,1.40
2019-04-01T04:28:33.188Z,1.40
2019-04-01T04:31:01.043Z,1.40
2019-04-01T04:33:29.008Z,1.40
2019-04-01T04:35:56.879Z,1.40
2019-04-01T04:38:24.874Z,1.40
2019-04-01T04:40:53.005Z,1.40
2019-04-01T04:43:21.055Z,1.40
2019-04-01T04:45:50.058Z,1.40
2019-04-01T04:48:19.145Z,1.40
2019-04-01T04:50:48.641Z,1.40
2019-04-01T04:53:16.629Z,1.50
2019-04-01T04:55:44.466Z,1.50
2019-04-01T04:58:12.426Z,1.50
2019-04-01T05:00:40.329Z,1.50
2019-04-01T05:03:08.382Z,1.50
2019-04-01T05:05:39.044Z,1.60
2019-04-01T05:08:06.978Z,1.60
2019-04-01T05:10:36.840Z,1.70
2019-04-01T05:13:04.898Z,1.70
2019-04-01T05:15:32.901Z,1.70
2019-04-01T05:18:03.048Z,1.70
2019-04-01T05:20:31.953Z,1.80
2019-04-01T05:23:02.388Z,1.80
2019-04-01T05:25:32.005Z,1.90
2019-04-01T05:28:00.124Z,1.90
2019-04-01T05:30:29.719Z,1.90
2019-04-01T05:32:57.569Z,2.00
2019-04-01T05:35:27.100Z,2.00
2019-04-01T05:37:56.014Z,2.10
2019-04-01T05:40:24.181Z,2.20
2019-04-01T05:42:52.255Z,2.20
2019-04-01T05:45:20.280Z,2.20
2019-04-01T05:47:49.816Z,2.30
2019-04-01T05:50:17.781Z,2.30
2019-04-01T05:52:45.709Z,2.30
2019-04-01T05:55:13.908Z,2.40
2019-04-01T05:57:41.985Z,2.40
2019-04-01T06:00:12.234Z,2.50
2019-04-01T06:02:41.328Z,2.50
2019-04-01T06:05:10.615Z,2.60
2019-04-01T06:07:38.490Z,2.60
2019-04-01T06:10:07.175Z,2.70
2019-04-01T06:12:35.588Z,2.70
2019-04-01T06:15:04.878Z,2.70
2019-04-01T06:17:32.988Z,2.80
2019-04-01T06:20:00.900Z,2.80
2019-04-01T06:22:28.921Z,2.80
2019-04-01T06:24:57.416Z,2.90
2019-04-01T06:27:25.876Z,2.90
2019-04-01T06:29:54.148Z,3.00
2019-04-01T06:32:22.273Z,3.10
2019-04-01T06:34:53.036Z,3.10
2019-04-01T06:37:20.027Z,3.20
2019-04-01T06:39:47.969Z,3.20
2019-04-01T06:42:15.960Z,3.30
2019-04-01T06:44:43.980Z,3.40
2019-04-01T06:47:13.413Z,3.50
2019-04-01T06:49:41.302Z,3.60
2019-04-01T06:52:09.298Z,3.70
2019-04-01T06:54:37.597Z,3.80
2019-04-01T06:57:08.533Z,4.00
2019-04-01T06:59:38.025Z,4.10
2019-04-01T07:02:06.533Z,4.20
2019-04-01T07:04:35.540Z,4.30
2019-04-01T07:07:18.970Z,4.50
2019-04-01T07:09:40.833Z,4.60
2019-04-01T07:12:10.035Z,4.70
2019-04-01T07:14:43.156Z,4.80
2019-04-01T07:17:11.178Z,4.90
2019-04-01T07:19:39.470Z,5.00
2019-04-01T07:22:07.444Z,5.10
2019-04-01T07:24:37.435Z,5.20
2019-04-01T07:27:08.200Z,5.30
2019-04-01T07:29:36.601Z,5.40
2019-04-01T07:32:04.766Z,5.50
2019-04-01T07:34:32.728Z,5.60
2019-04-01T07:37:00.901Z,5.70
2019-04-01T07:39:28.716Z,5.80
2019-04-01T07:41:57.664Z,5.90
2019-04-01T07:44:25.534Z,6.00
2019-04-01T07:46:53.463Z,6.10
2019-04-01T07:49:21.681Z,6.20
2019-04-01T07:51:49.645Z,6.40
2019-04-01T07:54:18.712Z,6.50
2019-04-01T07:56:47.508Z,6.50
2019-04-01T07:59:15.680Z,6.70
2019-04-01T08:01:43.976Z,6.80
2019-04-01T08:04:12.155Z,6.80
2019-04-01T08:06:40.474Z,7.00
2019-04-01T08:09:08.533Z,7.10
2019-04-01T08:11:37.089Z,7.20
2019-04-01T08:14:06.592Z,7.20
2019-04-01T08:16:34.891Z,7.30
2019-04-01T08:19:03.291Z,7.40
2019-04-01T08:21:31.274Z,7.40
2019-04-01T08:23:59.164Z,7.40
2019-04-01T08:26:28.426Z,7.50
2019-04-01T08:28:56.611Z,7.60
2019-04-01T08:31:24.752Z,7.70
2019-04-01T08:33:52.732Z,7.80
2019-04-01T08:36:21.695Z,7.80
2019-04-01T08:38:50.058Z,7.90
2019-04-01T08:41:18.190Z,8.00
2019-04-01T08:43:48.336Z,8.00
2019-04-01T08:46:16.455Z,8.00
2019-04-01T08:48:45.658Z,8.00
2019-04-01T08:51:13.727Z,8.00
2019-04-01T08:53:42.922Z,8.00
2019-04-01T08:56:11.170Z,8.10
2019-04-01T08:58:40.039Z,8.10
2019-04-01T09:01:10.504Z,8.10
2019-04-01T09:03:39.924Z,8.10
2019-04-01T09:06:08.215Z,8.10
2019-04-01T09:08:36.398Z,8.20
2019-04-01T09:11:04.581Z,8.20
2019-04-01T09:13:35.173Z,8.30
2019-04-01T09:16:05.549Z,8.40
2019-04-01T09:18:33.840Z,8.50
2019-04-01T09:21:03.226Z,8.50
2019-04-01T09:23:31.428Z,8.60
2019-04-01T09:25:59.525Z,8.70
2019-04-01T09:28:27.801Z,9.00
2019-04-01T09:30:55.910Z,10.60
2019-04-01T09:33:24.173Z,13.10
2019-04-01T09:35:54.283Z,16.10
2019-04-01T09:38:24.436Z,18.90
2019-04-01T09:40:55.010Z,21.20
2019-04-01T09:43:24.732Z,23.50
2019-04-01T09:45:53.677Z,25.60
2019-04-01T09:48:23.986Z,26.90
2019-04-01T09:50:54.176Z,28.10
2019-04-01T09:53:22.711Z,29.40
2019-04-01T09:55:51.721Z,30.30
2019-04-01T09:58:20.516Z,30.90
2019-04-01T10:00:53.171Z,30.70
2019-04-01T10:03:20.838Z,30.40
2019-04-01T10:05:50.380Z,30.50
2019-04-01T10:08:20.575Z,30.70
2019-04-01T10:10:49.950Z,30.50
2019-04-01T10:13:19.011Z,30.20
2019-04-01T10:15:48.175Z,29.70
2019-04-01T10:18:17.061Z,29.70
2019-04-01T10:20:46.243Z,29.70
2019-04-01T10:23:20.429Z,29.50
2019-04-01T10:25:51.342Z,29.40
2019-04-01T10:28:19.901Z,29.80
2019-04-01T10:30:48.900Z,30.30
2019-04-01T10:33:20.871Z,30.30
2019-04-01T10:35:50.575Z,30.40
2019-04-01T10:38:19.452Z,30.70
2019-04-01T10:40:48.342Z,31.20
2019-04-01T10:43:17.081Z,31.50
2019-04-01T10:45:46.063Z,31.40
2019-04-01T10:48:16.358Z,30.90
2019-04-01T10:50:45.515Z,30.40
2019-04-01T10:53:16.009Z,30.20
2019-04-01T10:55:44.945Z,30.10
2019-04-01T10:58:14.416Z,29.30
2019-04-01T11:00:44.596Z,28.50
2019-04-01T11:03:13.708Z,27.90
2019-04-01T11:05:42.834Z,27.60
2019-04-01T11:08:11.856Z,27.00
2019-04-01T11:10:42.514Z,26.50
2019-04-01T11:13:11.392Z,26.00
2019-04-01T11:15:41.753Z,25.50
2019-04-01T11:18:13.073Z,25.10
2019-04-01T11:20:41.993Z,25.00
2019-04-01T11:23:10.113Z,24.30
2019-04-01T11:25:38.404Z,23.50
2019-04-01T11:28:06.607Z,22.40
2019-04-01T11:30:36.959Z,20.70
2019-04-01T11:33:07.821Z,19.00
2019-04-01T11:35:38.015Z,17.60
2019-04-01T11:38:06.370Z,16.50
2019-04-01T11:40:38.626Z,15.60
2019-04-01T11:43:06.354Z,14.80
2019-04-01T11:45:37.092Z,13.90
2019-04-01T11:48:05.340Z,13.10
2019-04-01T11:50:33.627Z,12.50
2019-04-01T11:53:03.308Z,12.10
2019-04-01T11:55:32.961Z,11.90
2019-04-01T11:58:01.207Z,11.60
2019-04-01T12:00:29.505Z,11.40
2019-04-01T12:02:57.665Z,11.30
2019-04-01T12:05:25.895Z,11.20
2019-04-01T12:07:54.159Z,11.10
2019-04-01T12:10:22.548Z,10.90
2019-04-01T12:12:50.931Z,10.80
2019-04-01T12:15:20.263Z,10.80
2019-04-01T12:17:48.604Z,10.90
2019-04-01T12:20:16.561Z,11.00
2019-04-01T12:22:45.919Z,11.00
2019-04-01T12:25:14.596Z,10.90
2019-04-01T12:27:42.724Z,10.80
2019-04-01T12:30:11.778Z,10.60
2019-04-01T12:32:40.129Z,10.60
2019-04-01T12:35:08.021Z,10.70
2019-04-01T12:37:36.296Z,10.90
2019-04-01T12:40:05.285Z,11.00
2019-04-01T12:42:33.518Z,11.00
2019-04-01T12:45:02.952Z,11.00
2019-04-01T12:47:31.388Z,11.00
2019-04-01T12:49:59.745Z,10.80
2019-04-01T12:52:28.115Z,10.80
2019-04-01T12:54:56.299Z,10.70
2019-04-01T12:57:24.839Z,10.60
2019-04-01T12:59:56.460Z,10.60
2019-04-01T13:02:24.702Z,10.60
2019-04-01T13:04:55.550Z,10.60
2019-04-01T13:07:24.086Z,10.50
2019-04-01T13:09:53.317Z,10.50
2019-04-01T13:12:22.424Z,10.60
2019-04-01T13:14:50.750Z,10.70
2019-04-01T13:17:19.174Z,10.60
2019-04-01T13:19:47.379Z,10.50
2019-04-01T13:22:16.578Z,10.50
2019-04-01T13:24:46.379Z,10.40
2019-04-01T13:27:15.181Z,10.40
2019-04-01T13:29:43.297Z,10.40
2019-04-01T13:32:11.377Z,10.50
2019-04-01T13:34:39.512Z,10.60
2019-04-01T13:37:08.957Z,10.50
2019-04-01T13:39:37.087Z,10.60
2019-04-01T13:42:05.480Z,10.60
2019-04-01T13:44:37.218Z,10.60
2019-04-01T13:47:03.428Z,10.60
2019-04-01T13:49:34.534Z,10.50
2019-04-01T13:52:03.645Z,10.60
2019-04-01T13:54:31.339Z,10.60
2019-04-01T13:57:00.201Z,10.60
2019-04-01T13:59:31.169Z,10.60
2019-04-01T14:01:59.820Z,10.70
2019-04-01T14:04:28.460Z,10.70
2019-04-01T14:06:59.123Z,10.70
2019-04-01T14:09:30.705Z,10.80
2019-04-01T14:11:56.987Z,10.80
2019-04-01T14:14:25.852Z,10.80
2019-04-01T14:16:53.984Z,10.90
2019-04-01T14:19:23.446Z,10.90
2019-04-01T14:21:53.272Z,10.90
2019-04-01T14:24:21.610Z,10.90
2019-04-01T14:26:49.701Z,10.90
2019-04-01T14:29:17.831Z,10.90
2019-04-01T14:31:48.009Z,10.90
2019-04-01T14:34:23.315Z,10.80
2019-04-01T14:36:46.862Z,10.80
2019-04-01T14:39:18.226Z,10.80
2019-04-01T14:41:46.761Z,10.90
2019-04-01T14:44:21.951Z,10.90
2019-04-01T14:46:56.303Z,10.90
2019-04-01T14:49:25.758Z,10.80
2019-04-01T14:51:53.955Z,10.80
2019-04-01T14:54:22.367Z,10.70
2019-04-01T14:56:52.620Z,10.70
2019-04-01T14:59:20.733Z,10.70
2019-04-01T15:01:48.887Z,10.70
2019-04-01T15:04:18.553Z,10.70
2019-04-01T15:06:46.694Z,10.60
2019-04-01T15:09:14.993Z,10.60
2019-04-01T15:11:43.663Z,10.60
2019-04-01T15:14:12.082Z,10.60
2019-04-01T15:16:40.334Z,10.60
2019-04-01T15:19:12.511Z,10.50
2019-04-01T15:21:38.437Z,10.60
2019-04-01T15:24:07.488Z,10.70
2019-04-01T15:26:35.533Z,10.80
2019-04-01T15:29:05.187Z,11.10
2019-04-01T15:31:33.311Z,11.90
2019-04-01T15:34:02.840Z,12.60
2019-04-01T15:36:30.927Z,12.80
2019-04-01T15:38:59.090Z,12.80
2019-04-01T15:41:27.444Z,12.80
2019-04-01T15:43:55.631Z,13.00
2019-04-01T15:46:23.779Z,13.10
2019-04-01T15:48:51.687Z,13.20
2019-04-01T15:51:19.587Z,13.10
2019-04-01T15:53:47.639Z,13.00
2019-04-01T15:56:15.941Z,12.90
2019-04-01T15:58:45.717Z,12.90
2019-04-01T16:01:15.971Z,12.80
2019-04-01T16:03:44.095Z,12.60
2019-04-01T16:06:12.041Z,12.20
2019-04-01T16:08:40.568Z,12.10
2019-04-01T16:11:08.848Z,12.70
2019-04-01T16:13:36.811Z,13.50
2019-04-01T16:16:04.910Z,13.50
2019-04-01T16:18:33.260Z,13.10
2019-04-01T16:21:02.452Z,12.50
2019-04-01T16:23:30.606Z,12.00
2019-04-01T16:26:00.044Z,11.50
2019-04-01T16:28:30.132Z,11.00
2019-04-01T16:30:58.103Z,10.70
2019-04-01T16:33:27.653Z,10.50
2019-04-01T16:35:55.838Z,10.30
2019-04-01T16:38:24.220Z,10.10
2019-04-01T16:40:52.577Z,10.00
2019-04-01T16:43:22.594Z,9.90
2019-04-01T16:45:51.977Z,9.70
2019-04-01T16:48:20.067Z,9.70
2019-04-01T16:50:50.717Z,9.60
2019-04-01T16:53:18.878Z,9.50
2019-04-01T16:55:48.558Z,9.40
2019-04-01T16:58:18.269Z,9.30
2019-04-01T17:00:46.628Z,9.30
2019-04-01T17:03:14.765Z,9.20
2019-04-01T17:05:42.937Z,9.10
2019-04-01T17:08:11.219Z,9.10
2019-04-01T17:10:39.212Z,9.00
2019-04-01T17:13:07.813Z,9.00
2019-04-01T17:15:37.297Z,8.90
2019-04-01T17:18:05.421Z,8.80
2019-04-01T17:20:33.664Z,8.80
2019-04-01T17:23:02.716Z,8.80
2019-04-01T17:25:31.094Z,8.70
2019-04-01T17:27:59.240Z,8.60
2019-04-01T17:30:29.610Z,8.50
2019-04-01T17:32:57.758Z,8.50
2019-04-01T17:35:25.982Z,8.40
2019-04-01T17:37:54.134Z,8.40
2019-04-01T17:40:22.217Z,8.30
2019-04-01T17:42:50.118Z,8.20
2019-04-01T17:45:22.320Z,8.20
2019-04-01T17:47:50.299Z,8.20
2019-04-01T17:50:18.447Z,8.10
2019-04-01T17:52:48.178Z,8.10
2019-04-01T17:55:17.346Z,8.00
2019-04-01T17:57:46.232Z,7.90
2019-04-01T18:00:17.441Z,7.90
2019-04-01T18:02:45.326Z,7.90
2019-04-01T18:05:15.070Z,7.70
2019-04-01T18:07:43.043Z,7.70
2019-04-01T18:10:11.088Z,7.70
2019-04-01T18:12:39.100Z,7.70
2019-04-01T18:15:07.151Z,7.60
2019-04-01T18:17:35.060Z,7.60
2019-04-01T18:20:05.078Z,7.50
2019-04-01T18:22:33.418Z,7.50
2019-04-01T18:25:01.281Z,7.40
2019-04-01T18:27:29.195Z,7.40
2019-04-01T18:29:57.115Z,7.30
2019-04-01T18:32:25.096Z,7.30
2019-04-01T18:34:52.975Z,7.20
2019-04-01T18:37:21.159Z,7.20
2019-04-01T18:39:50.676Z,7.10
2019-04-01T18:42:20.204Z,7.10
2019-04-01T18:44:54.107Z,7.10
2019-04-01T18:47:22.250Z,7.00
2019-04-01T18:49:50.328Z,7.00
2019-04-01T18:52:19.685Z,7.00
2019-04-01T18:54:47.723Z,6.90
2019-04-01T18:57:15.637Z,6.90
2019-04-01T18:59:43.686Z,6.90
2019-04-01T19:02:13.082Z,6.90
2019-04-01T19:04:43.933Z,6.80
2019-04-01T19:07:12.116Z,6.80
2019-04-01T19:09:40.313Z,6.80
2019-04-01T19:12:14.112Z,6.80
2019-04-01T19:14:43.913Z,6.70
2019-04-01T19:17:14.100Z,6.70
2019-04-01T19:19:44.590Z,6.60
2019-04-01T19:22:12.583Z,6.60
2019-04-01T19:24:41.654Z,6.50
2019-04-01T19:27:10.005Z,6.50
2019-04-01T19:29:38.337Z,6.50
2019-04-01T19:32:06.295Z,6.40
2019-04-01T19:34:36.061Z,6.40
2019-04-01T19:37:05.181Z,6.30
2019-04-01T19:39:33.477Z,6.30
2019-04-01T19:42:01.599Z,6.20
2019-04-01T19:44:29.987Z,6.20
2019-04-01T19:46:58.301Z,6.20
2019-04-01T19:49:26.535Z,6.20
2019-04-01T19:51:56.309Z,6.10
2019-04-01T19:54:31.092Z,6.10
2019-04-01T19:56:59.115Z,6.10
2019-04-01T19:59:27.734Z,6.00
2019-04-01T20:01:55.742Z,6.00
2019-04-01T20:04:24.732Z,6.00
2019-04-01T20:06:54.001Z,6.00
2019-04-01T20:09:22.306Z,6.00
2019-04-01T20:11:52.271Z,5.90
2019-04-01T20:14:21.516Z,5.90
2019-04-01T20:16:49.476Z,5.90
2019-04-01T20:19:19.374Z,5.90
2019-04-01T20:21:47.614Z,5.90
2019-04-01T20:24:17.267Z,5.80
2019-04-01T20:26:46.998Z,5.80
2019-04-01T20:29:15.131Z,5.70
2019-04-01T20:31:43.509Z,5.70
2019-04-01T20:34:19.500Z,5.70
2019-04-01T20:36:43.486Z,5.70
2019-04-01T20:39:11.937Z,5.60
2019-04-01T20:41:40.948Z,5.60
2019-04-01T20:44:11.446Z,5.60
2019-04-01T20:46:43.699Z,5.50
2019-04-01T20:49:11.627Z,5.50
2019-04-01T20:51:41.190Z,5.50
2019-04-01T20:54:09.130Z,5.50
2019-04-01T20:56:36.994Z,5.50
2019-04-01T20:59:05.013Z,5.40
2019-04-01T21:01:32.833Z,5.40
2019-04-01T21:04:00.696Z,5.40
2019-04-01T21:06:31.600Z,5.40
2019-04-01T21:09:01.256Z,5.40
2019-04-01T21:11:29.333Z,5.40
2019-04-01T21:13:59.874Z,5.40
2019-04-01T21:16:29.046Z,5.40
2019-04-01T21:18:57.157Z,5.40
2019-04-01T21:21:25.431Z,5.30
2019-04-01T21:23:53.418Z,5.30
2019-04-01T21:26:22.507Z,5.30
2019-04-01T21:28:52.019Z,5.30
2019-04-01T21:31:20.094Z,5.30
2019-04-01T21:33:48.146Z,5.30
2019-04-01T21:36:16.178Z,5.30
2019-04-01T21:38:44.119Z,5.30
2019-04-01T21:41:12.172Z,5.30
2019-04-01T21:43:40.306Z,5.20
2019-04-01T21:46:08.365Z,5.20
2019-04-01T21:48:39.155Z,5.20
2019-04-01T21:51:05.884Z,5.20
2019-04-01T21:53:33.822Z,5.10
2019-04-01T21:56:02.081Z,5.10
2019-04-01T21:58:29.956Z,5.10
2019-04-01T22:00:59.455Z,5.10
2019-04-01T22:03:29.015Z,5.10
2019-04-01T22:05:56.810Z,5.00
2019-04-01T22:08:24.813Z,5.00
2019-04-01T22:10:52.765Z,5.00
2019-04-01T22:13:20.675Z,5.00
2019-04-01T22:15:50.065Z,4.90
2019-04-01T22:18:18.055Z,4.90
2019-04-01T22:20:46.034Z,4.90
2019-04-01T22:23:16.984Z,4.90
2019-04-01T22:25:44.841Z,4.80
2019-04-01T22:28:14.607Z,4.80
2019-04-01T22:30:42.848Z,4.80
2019-04-01T22:33:11.213Z,4.70
2019-04-01T22:35:41.560Z,4.70
2019-04-01T22:38:10.932Z,4.70
2019-04-01T22:40:40.422Z,4.60
2019-04-01T22:43:11.832Z,4.60
2019-04-01T22:45:39.847Z,4.60
2019-04-01T22:48:07.845Z,4.60
2019-04-01T22:50:35.894Z,4.60
2019-04-01T22:53:04.430Z,4.60
2019-04-01T22:55:32.791Z,4.50
2019-04-01T22:58:00.784Z,4.50
2019-04-01T23:00:29.278Z,4.50
2019-04-01T23:02:57.302Z,4.50
2019-04-01T23:05:27.547Z,4.50
2019-04-01T23:07:58.434Z,4.50
2019-04-01T23:10:29.301Z,4.50
2019-04-01T23:12:57.208Z,4.40
2019-04-01T23:15:25.113Z,4.40
2019-04-01T23:17:53.307Z,4.40
2019-04-01T23:20:25.244Z,4.40
2019-04-01T23:22:59.221Z,4.40
2019-04-01T23:25:28.016Z,4.30
2019-04-01T23:27:57.546Z,4.30
2019-04-01T23:30:25.576Z,4.30
2019-04-01T23:32:53.448Z,4.30
2019-04-01T23:35:25.517Z,4.30
2019-04-01T23:37:50.807Z,4.30
2019-04-01T23:40:20.392Z,4.30
2019-04-01T23:42:48.225Z,4.30
2019-04-01T23:45:18.800Z,4.20
2019-04-01T23:47:46.741Z,4.20
2019-04-01T23:50:14.692Z,4.20
2019-04-01T23:52:42.547Z,4.20
2019-04-01T23:55:10.564Z,4.20
2019-04-01T23:57:39.710Z,4.10
